Time;durP1;ratioP1;P1;durP2;ratioP2;P2;SDS_P1;SDS_P2;PMS_P1;PMS_P2;Temp;Humidity;BMP_temperature;BMP_pressure;BME280_temperature;BME280_humidity;BME280_pressure;Samples;Min_cycle;Max_cycle;Signal;HPM_P1;HPM_P2
2022/09/09 00:00:35;;;;;;;4.62;2.08;;;;;;;14.27;57.22;101087.55;1661511;83;21635;-86
2022/09/09 00:03:21;;;;;;;4.95;2.20;;;;;;;14.25;57.29;101082.67;1683012;83;21125;-86
2022/09/09 00:06:02;;;;;;;;;;;;;;;14.22;57.34;101078.64;1636196;85;22681;-87
2022/09/09 00:08:38;;;;;;;5.60;2.17;;;;;;;14.20;57.43;101082.14;1630572;87;20212;-87
2022/09/09 00:11:06;;;;;;;5.40;2.20;;;;;;;14.18;57.44;101073.28;1619673;85;21066;-87
2022/09/09 00:13:45;;;;;;;8.13;2.08;;;;;;;14.17;57.50;101074.17;1635256;85;21101;-87
2022/09/09 00:16:23;;;;;;;2.52;2.02;;;;;;;14.15;57.56;101069.28;1640596;85;21528;-87
2022/09/09 00:19:10;;;;;;;3.25;2.08;;;;;;;14.15;57.59;101073.66;1684656;83;21597;-87
2022/09/09 00:21:39;;;;;;;6.20;1.90;;;;;;;14.13;57.62;101069.70;1619825;86;21137;-87
2022/09/09 00:24:28;;;;;;;3.95;2.20;;;;;;;14.13;57.66;101068.38;1633763;85;21051;-87
2022/09/09 00:27:00;;;;;;;4.42;2.10;;;;;;;14.11;57.68;101070.08;1673718;83;21143;-87
2022/09/09 00:29:49;;;;;;;6.17;2.60;;;;;;;14.11;57.71;101070.08;1690530;83;21034;-87
2022/09/09 00:32:18;;;;;;;4.80;1.82;;;;;;;14.10;57.71;101069.64;1691093;83;21767;-87
2022/09/09 00:34:53;;;;;;;4.28;2.50;;;;;;;14.10;57.73;101066.98;1690741;83;21549;-87
2022/09/09 00:37:21;;;;;;;4.03;2.00;;;;;;;14.11;57.75;101069.20;1691014;83;20992;-87
2022/09/09 00:39:48;;;;;;;4.60;2.58;;;;;;;14.10;57.77;101068.31;1690994;83;21033;-87
2022/09/09 00:42:34;;;;;;;4.78;2.15;;;;;;;14.10;57.79;101068.76;1690955;83;21014;-86
2022/09/09 00:45:15;;;;;;;3.22;1.90;;;;;;;14.11;57.84;101057.28;1690334;83;21944;-87
2022/09/09 00:47:50;;;;;;;7.80;2.10;;;;;;;14.15;57.84;101059.11;1691029;83;20985;-86
2022/09/09 00:50:29;;;;;;;3.52;1.77;;;;;;;14.20;57.86;101052.13;1680701;83;21037;-87
2022/09/09 00:53:17;;;;;;;4.33;1.95;;;;;;;14.24;57.84;101059.25;1688488;83;21543;-87
2022/09/09 00:56:08;;;;;;;3.92;1.80;;;;;;;14.29;57.79;101056.24;1669841;85;21050;-87
2022/09/09 00:58:36;;;;;;;4.20;2.12;;;;;;;14.34;57.74;101055.88;1631909;86;22544;-86
2022/09/09 01:01:12;;;;;;;5.87;2.10;;;;;;;14.38;57.67;101059.47;1673418;83;21029;-87
2022/09/09 01:03:55;;;;;;;10.95;2.12;;;;;;;14.39;57.63;101054.16;1682144;83;20985;-87
2022/09/09 01:06:31;;;;;;;4.17;2.00;;;;;;;14.43;57.61;101055.55;1691371;83;20978;-87
2022/09/09 01:09:36;;;;;;;4.28;1.77;;;;;;;14.45;57.59;101054.72;1691461;83;21004;-87
2022/09/09 01:12:16;;;;;;;8.20;2.10;;;;;;;14.45;57.52;101052.08;1658903;84;21816;-87
2022/09/09 01:14:51;;;;;;;10.53;2.33;;;;;;;14.48;57.51;101055.19;1691450;83;21090;-87
2022/09/09 01:17:30;;;;;;;4.22;2.10;;;;;;;14.48;57.53;101050.77;1690420;83;21503;-88
2022/09/09 01:20:23;;;;;;;3.05;2.05;;;;;;;14.48;57.49;101046.80;1677776;83;21021;-87
2022/09/09 01:23:16;;;;;;;4.92;2.00;;;;;;;14.49;57.48;101055.62;1686967;83;21568;-87
2022/09/09 01:26:20;;;;;;;6.65;1.90;;;;;;;14.47;57.49;101057.36;1657352;85;21827;-87
2022/09/09 01:28:48;;;;;;;;;;;;;;;14.46;57.50;101055.16;1691307;83;21147;-86
2022/09/09 01:31:31;;;;;;;3.65;1.77;;;;;;;14.45;57.54;101057.37;1689387;83;20513;-87
2022/09/09 01:33:58;;;;;;;3.37;2.05;;;;;;;14.45;57.55;101057.37;1689266;83;21389;-87
2022/09/09 01:36:42;;;;;;;4.50;2.00;;;;;;;14.44;57.54;101058.22;1689222;83;21164;-87
2022/09/09 01:39:11;;;;;;;10.15;2.50;;;;;;;14.46;57.58;101063.55;1689434;83;21786;-87
2022/09/09 01:41:38;;;;;;;2.55;2.00;;;;;;;14.45;57.58;101057.37;1689226;83;21144;-87
2022/09/09 01:44:06;;;;;;;5.92;2.00;;;;;;;14.45;57.61;101063.08;1683610;83;21073;-87
2022/09/09 01:46:34;;;;;;;3.87;1.90;;;;;;;14.47;57.62;101061.34;1680870;84;21073;-87
2022/09/09 01:49:01;;;;;;;6.53;2.30;;;;;;;14.48;57.64;101060.04;1681001;83;21436;-87
2022/09/09 01:51:27;;;;;;;5.08;2.22;;;;;;;14.47;57.58;101060.92;1681495;83;23009;-89
2022/09/09 01:53:55;;;;;;;5.30;1.90;;;;;;;14.46;57.62;101059.13;1681370;83;20933;-87
2022/09/09 01:56:58;;;;;;;8.13;2.27;;;;;;;14.47;57.66;101061.34;1681364;83;21555;-87
2022/09/09 01:59:52;;;;;;;2.83;1.85;;;;;;;14.48;57.68;101060.48;1662828;83;21390;-87
2022/09/09 02:02:21;;;;;;;4.25;1.80;;;;;;;14.47;57.67;101057.36;1681288;83;21025;-87
2022/09/09 02:04:51;;;;;;;3.92;2.25;;;;;;;14.47;57.75;101060.92;1681268;83;21722;-87
2022/09/09 02:07:42;;;;;;;5.40;2.35;;;;;;;14.47;57.75;101055.62;1681365;83;21006;-87
2022/09/09 02:10:31;;;;;;;5.33;2.47;;;;;;;14.48;57.75;101053.42;1662112;85;21001;-87
2022/09/09 02:13:06;;;;;;;5.42;2.30;;;;;;;14.50;57.74;101060.06;1661226;83;20969;-87
2022/09/09 02:15:41;;;;;;;3.95;2.08;;;;;;;14.49;57.76;101053.89;1680923;83;20982;-87
2022/09/09 02:18:13;;;;;;;4.40;2.25;;;;;;;14.50;57.76;101054.77;1661186;83;21733;-88
2022/09/09 02:20:55;;;;;;;4.90;2.60;;;;;;;14.51;57.76;101060.54;1628357;86;21031;-88
2022/09/09 02:23:18;;;;;;;2.85;2.20;;;;;;;14.50;57.76;101055.65;1618436;85;21011;-88
2022/09/09 02:25:46;;;;;;;5.85;2.00;;;;;;;14.50;57.77;101056.98;1625578;86;21110;-87
2022/09/09 02:28:12;;;;;;;6.92;1.95;;;;;;;14.50;57.85;101056.09;1630412;86;21275;-87
2022/09/09 02:30:39;;;;;;;4.28;1.80;;;;;;;14.50;57.95;101058.74;1618656;86;21739;-86
2022/09/09 02:33:07;;;;;;;4.33;1.98;;;;;;;14.47;57.98;101050.33;1629921;86;21084;-87
2022/09/09 02:35:36;;;;;;;3.55;1.67;;;;;;;14.46;58.04;101051.63;1637639;86;21121;-87
2022/09/09 02:38:05;;;;;;;7.10;2.35;;;;;;;14.46;58.09;101059.58;1625052;86;21095;-87
2022/09/09 02:40:32;;;;;;;3.62;2.33;;;;;;;14.44;58.14;101054.69;1625157;86;22049;-86
2022/09/09 02:42:59;;;;;;;12.43;2.35;;;;;;;14.42;58.17;101046.72;1624927;86;22570;-87
2022/09/09 02:45:31;;;;;;;8.18;2.47;;;;;;;14.42;58.22;101048.48;1623116;86;21660;-86
2022/09/09 02:48:32;;;;;;;4.37;2.55;;;;;;;14.40;58.22;101053.76;1609385;86;21042;-86
2022/09/09 02:51:12;;;;;;;3.08;2.00;;;;;;;14.39;58.21;101050.64;1604903;86;21396;-87
2022/09/09 02:53:50;;;;;;;7.08;2.22;;;;;;;14.38;58.28;101053.73;1624140;86;20988;-87
2022/09/09 02:56:19;;;;;;;4.35;1.90;;;;;;;14.37;58.34;101057.23;1614422;86;21702;-86
2022/09/09 02:58:47;;;;;;;4.62;2.17;;;;;;;14.38;58.38;101057.70;1613597;86;21046;-86
2022/09/09 03:01:14;;;;;;;6.53;2.45;;;;;;;14.37;58.42;101060.32;1624732;86;21027;-86
2022/09/09 03:03:42;;;;;;;6.20;2.40;;;;;;;14.36;58.61;101064.73;1623191;86;21097;-86
2022/09/09 03:06:09;;;;;;;9.00;2.20;;;;;;;14.37;58.78;101073.12;1604965;86;21094;-86
2022/09/09 03:08:36;;;;;;;5.20;2.47;;;;;;;14.38;58.96;101079.33;1623170;86;21769;-86
2022/09/09 03:11:03;;;;;;;4.03;2.37;;;;;;;14.34;59.28;101085.42;1622911;86;21118;-86
2022/09/09 03:13:30;;;;;;;9.05;3.10;;;;;;;14.27;59.64;101081.81;1621289;86;21118;-86
2022/09/09 03:15:57;;;;;;;6.42;2.87;;;;;;;14.22;60.24;101086.58;1664743;84;21156;-86
2022/09/09 03:18:24;;;;;;;6.62;3.42;;;;;;;14.14;60.81;101094.41;1633999;86;21156;-86
2022/09/09 03:20:51;;;;;;;8.93;3.80;;;;;;;14.05;61.33;101095.58;1643661;85;21812;-87
2022/09/09 03:23:17;;;;;;;6.78;3.85;;;;;;;13.95;62.03;101106.45;1643476;85;21065;-88
2022/09/09 03:25:48;;;;;;;7.03;3.67;;;;;;;13.89;62.44;101113.86;1638796;85;21769;-88
2022/09/09 03:28:15;;;;;;;8.85;3.67;;;;;;;13.86;62.97;101114.23;1596340;86;21034;-88
2022/09/09 03:30:42;;;;;;;11.50;4.35;;;;;;;13.86;63.34;101119.52;1599189;86;21044;-87
2022/09/09 03:33:09;;;;;;;10.23;3.77;;;;;;;13.87;63.80;101123.93;1598206;86;21703;-87
2022/09/09 03:35:36;;;;;;;8.50;4.28;;;;;;;13.87;64.12;101128.81;1602891;87;21087;-87
2022/09/09 03:38:05;;;;;;;6.22;4.03;;;;;;;13.85;64.46;101124.34;1630476;86;21654;-87
2022/09/09 03:40:31;;;;;;;9.00;4.40;;;;;;;13.85;64.69;101117.73;1616317;87;21388;-86
2022/09/09 03:42:58;;;;;;;8.08;4.17;;;;;;;13.81;65.00;101132.66;1652853;85;21458;-87
2022/09/09 03:45:26;;;;;;;9.60;4.95;;;;;;;13.78;65.33;101122.92;1630000;86;21798;-87
2022/09/09 03:47:53;;;;;;;8.73;4.87;;;;;;;13.75;65.50;101118.88;1625223;87;21674;-87
2022/09/09 03:50:21;;;;;;;15.20;4.70;;;;;;;13.75;65.79;101120.20;1623177;86;21101;-87
2022/09/09 03:52:48;;;;;;;10.68;4.97;;;;;;;13.75;66.13;101131.23;1629967;87;21072;-89
2022/09/09 03:55:15;;;;;;;11.83;4.62;;;;;;;13.72;66.44;101131.16;1620208;87;22341;-90
2022/09/09 03:57:41;;;;;;;10.18;5.08;;;;;;;13.68;66.55;101123.59;1622939;86;21750;-88
2022/09/09 04:00:09;;;;;;;9.73;4.83;;;;;;;13.66;66.84;101119.16;1622539;86;22191;-88
2022/09/09 04:02:36;;;;;;;8.00;4.35;;;;;;;13.65;67.01;101124.00;1618367;86;21114;-88
2022/09/09 04:05:03;;;;;;;9.08;4.53;;;;;;;13.67;67.20;101123.16;1627963;86;21166;-89
2022/09/09 04:07:30;;;;;;;7.83;4.67;;;;;;;13.65;67.34;101126.20;1629104;87;21593;-86
2022/09/09 04:09:57;;;;;;;8.85;4.65;;;;;;;13.65;67.49;101127.97;1629785;86;23114;-84
2022/09/09 04:12:24;;;;;;;7.80;4.75;;;;;;;13.63;67.70;101125.30;1630307;86;21064;-83
2022/09/09 04:14:50;;;;;;;7.40;4.80;;;;;;;13.59;67.82;101120.38;1627991;87;21095;-82
2022/09/09 04:17:18;;;;;;;14.23;5.22;;;;;;;13.58;68.02;101125.63;1591471;88;21161;-84
2022/09/09 04:19:45;;;;;;;7.53;4.85;;;;;;;13.58;68.27;101128.27;1674309;84;21084;-85
2022/09/09 04:22:11;;;;;;;10.82;4.30;;;;;;;13.58;68.36;101128.27;1679122;84;21752;-86
2022/09/09 04:24:38;;;;;;;10.35;5.12;;;;;;;13.55;68.50;101129.13;1679359;84;21673;-85
2022/09/09 04:27:05;;;;;;;8.65;4.42;;;;;;;13.55;68.64;101133.49;1679321;84;21334;-89
2022/09/09 04:29:32;;;;;;;13.30;4.78;;;;;;;13.52;68.82;101128.17;1681164;83;21050;-88
2022/09/09 04:31:58;;;;;;;9.25;5.12;;;;;;;13.51;68.99;101127.69;1686753;83;21077;-88
2022/09/09 04:34:25;;;;;;;11.20;4.50;;;;;;;13.52;69.10;101123.77;1674834;84;21733;-88
2022/09/09 04:36:53;;;;;;;7.75;4.17;;;;;;;13.51;69.20;101127.25;1678040;85;21132;-89
2022/09/09 04:39:19;;;;;;;8.13;3.55;;;;;;;13.49;69.34;101126.78;1677791;83;21088;-88
2022/09/09 04:41:47;;;;;;;8.85;4.05;;;;;;;13.49;69.49;101128.98;1679439;83;21113;-88
2022/09/09 04:44:13;;;;;;;7.78;3.85;;;;;;;13.50;69.55;101129.45;1679487;83;21582;-89
2022/09/09 04:46:41;;;;;;;9.53;4.28;;;;;;;13.45;69.57;101132.44;1680305;83;21816;-88
2022/09/09 04:49:08;;;;;;;8.73;4.35;;;;;;;13.43;69.72;101135.48;1680199;84;21587;-88
2022/09/09 04:51:35;;;;;;;9.25;4.10;;;;;;;13.40;69.84;101132.77;1670706;83;21076;-89
2022/09/09 04:54:02;;;;;;;13.50;4.35;;;;;;;13.39;70.04;101133.20;1691548;83;21105;-89
2022/09/09 04:56:28;;;;;;;12.10;4.40;;;;;;;13.37;70.14;101130.08;1680669;83;21152;-88
2022/09/09 04:58:55;;;;;;;5.97;4.00;;;;;;;13.37;70.28;101140.22;1680976;83;21590;-89
2022/09/09 05:01:24;;;;;;;6.67;3.98;;;;;;;13.35;70.32;101138.42;1682139;83;21559;-89
2022/09/09 05:03:53;;;;;;;7.78;4.12;;;;;;;13.34;70.46;101142.79;1679489;84;21550;-89
2022/09/09 05:06:21;;;;;;;6.83;4.28;;;;;;;13.33;70.55;101140.14;1674447;84;21074;-90
2022/09/09 05:08:49;;;;;;;8.73;4.60;;;;;;;13.32;70.58;101143.63;1679038;84;20976;-91
2022/09/09 05:11:21;;;;;;;7.47;4.30;;;;;;;13.29;70.65;101144.84;1679117;84;23200;-89
2022/09/09 05:13:49;;;;;;;8.53;3.95;;;;;;;13.28;70.74;101146.61;1675066;84;21117;-88
2022/09/09 05:16:16;;;;;;;8.43;3.62;;;;;;;13.27;70.77;101147.89;1633192;86;21579;-90
2022/09/09 05:18:45;;;;;;;7.47;3.65;;;;;;;13.28;70.92;101143.97;1621103;87;21106;-88
2022/09/09 05:21:16;;;;;;;8.53;3.52;;;;;;;13.29;70.81;101150.14;1616121;87;21102;-90
2022/09/09 05:23:43;;;;;;;8.85;3.60;;;;;;;13.25;70.88;101149.21;1613447;86;21772;-90
2022/09/09 05:26:15;;;;;;;6.60;3.52;;;;;;;13.25;70.96;101144.33;1610053;86;21109;-90
2022/09/09 05:28:42;;;;;;;6.58;3.95;;;;;;;13.23;70.95;101146.94;1624863;86;21095;-90
2022/09/09 05:31:15;;;;;;;6.25;3.58;;;;;;;13.21;71.02;101148.66;1623841;86;21123;-89
2022/09/09 05:33:42;;;;;;;8.43;3.70;;;;;;;13.23;71.20;101149.17;1619773;86;22180;-90
2022/09/09 05:36:16;;;;;;;9.43;3.72;;;;;;;13.27;71.33;101148.81;1637782;87;21776;-90
2022/09/09 05:38:43;;;;;;;10.18;4.28;;;;;;;13.29;71.41;101143.13;1695159;82;20986;-89
2022/09/09 05:41:11;;;;;;;10.25;4.22;;;;;;;13.32;71.43;101142.31;1681552;83;21461;-89
2022/09/09 05:43:38;;;;;;;7.25;3.98;;;;;;;13.30;71.46;101150.61;1681394;84;21465;-90
2022/09/09 05:46:07;;;;;;;6.97;3.00;;;;;;;13.26;71.43;101149.66;1663674;84;21006;-89
2022/09/09 05:48:38;;;;;;;6.95;3.17;;;;;;;13.19;71.31;101155.67;1636316;86;21434;-89
2022/09/09 05:51:09;;;;;;;4.55;2.70;;;;;;;13.11;71.29;101152.88;1635653;85;21055;-90
2022/09/09 05:53:37;;;;;;;5.42;2.55;;;;;;;13.06;71.33;101160.23;1639298;85;21039;-89
2022/09/09 05:56:06;;;;;;;4.53;3.10;;;;;;;13.02;71.43;101160.16;1639363;85;20988;-89
2022/09/09 05:58:33;;;;;;;4.83;2.60;;;;;;;13.00;71.50;101154.39;1639396;85;21047;-89
2022/09/09 06:01:17;;;;;;;6.92;2.77;;;;;;;12.98;71.56;101160.08;1627669;85;21742;-90
2022/09/09 06:04:21;;;;;;;;;;;;;;;;;;;;;
2022/09/09 06:07:41;;;;;;;;;;;;;;;;;;;;;
2022/09/09 06:10:06;;;;;;;6.58;3.60;;;;;;;12.80;71.58;101161.88;1616465;86;21416;-89
2022/09/09 06:12:33;;;;;;;7.90;3.00;;;;;;;12.68;71.74;101159.85;1623794;86;21527;-90
2022/09/09 06:14:59;;;;;;;4.92;2.75;;;;;;;12.67;72.01;101168.66;1636692;86;21819;-90
2022/09/09 06:17:26;;;;;;;5.50;3.25;;;;;;;12.69;72.11;101164.70;1636705;86;21437;-90
2022/09/09 06:19:53;;;;;;;5.83;2.52;;;;;;;12.67;72.11;101171.30;1632086;86;21122;-90
2022/09/09 06:22:20;;;;;;;4.62;3.20;;;;;;;12.63;72.16;101168.09;1635627;85;21559;-90
2022/09/09 06:24:53;;;;;;;5.17;2.72;;;;;;;12.61;72.26;101172.05;1635342;85;21113;-91
2022/09/09 06:27:20;;;;;;;10.72;3.17;;;;;;;12.60;72.35;101171.56;1637264;85;23053;-91
2022/09/09 06:29:48;;;;;;;3.20;2.52;;;;;;;12.58;72.54;101168.44;1628268;85;21085;-89
2022/09/09 06:32:15;;;;;;;3.52;2.55;;;;;;;12.63;72.56;101164.12;1618674;85;21078;-91
2022/09/09 06:34:52;;;;;;;5.35;2.87;;;;;;;12.60;72.59;101168.92;1621166;85;21622;-89
2022/09/09 06:37:19;;;;;;;6.58;2.98;;;;;;;12.66;72.73;101173.89;1615101;86;21109;-90
2022/09/09 06:39:46;;;;;;;4.92;2.65;;;;;;;12.65;72.46;101175.66;1616344;85;21748;-89
2022/09/09 06:42:13;;;;;;;5.75;2.70;;;;;;;12.66;72.59;101173.89;1616413;86;21109;-89
2022/09/09 06:44:41;;;;;;;7.40;4.12;;;;;;;12.66;72.58;101177.86;1637570;85;21172;-89
2022/09/09 06:47:08;;;;;;;5.72;3.62;;;;;;;12.67;72.62;101177.90;1644920;85;21549;-89
2022/09/09 06:49:37;;;;;;;4.70;2.87;;;;;;;12.67;72.63;101184.91;1631362;85;21109;-90
2022/09/09 06:52:03;;;;;;;4.45;2.90;;;;;;;12.66;72.65;101182.70;1629244;86;24196;-90
2022/09/09 06:54:32;;;;;;;3.47;2.35;;;;;;;12.69;72.68;101192.43;1625691;87;21081;-88
2022/09/09 06:57:00;;;;;;;4.55;2.50;;;;;;;12.67;72.65;101185.82;1629286;86;21378;-88
2022/09/09 06:59:30;;;;;;;7.85;2.92;;;;;;;12.71;72.71;101190.75;1628204;86;21176;-88
2022/09/09 07:01:58;;;;;;;5.22;2.80;;;;;;;12.74;72.77;101194.77;1629239;86;21503;-88
2022/09/09 07:04:26;;;;;;;5.22;2.37;;;;;;;12.75;72.66;101187.31;1628992;86;22982;-88
2022/09/09 07:06:52;;;;;;;5.28;2.50;;;;;;;12.78;72.67;101198.84;1631192;86;21152;-89
2022/09/09 07:09:20;;;;;;;7.80;2.40;;;;;;;12.79;72.59;101196.66;1630515;86;21021;-89
2022/09/09 07:11:52;;;;;;;4.45;2.50;;;;;;;12.77;72.60;101189.13;1588741;87;21026;-89
2022/09/09 07:14:22;;;;;;;4.10;2.40;;;;;;;12.76;72.60;101193.96;1631396;87;21072;-89
2022/09/09 07:16:49;;;;;;;4.22;2.50;;;;;;;12.79;72.59;101194.02;1630380;87;22394;-89
2022/09/09 07:19:17;;;;;;;4.65;2.77;;;;;;;12.77;72.67;101192.20;1627196;87;21583;-89
2022/09/09 07:21:45;;;;;;;5.00;2.67;;;;;;;12.82;72.80;101196.73;1629728;86;21081;-89
2022/09/09 07:24:13;;;;;;;3.85;2.05;;;;;;;12.82;72.62;101196.73;1623922;87;21072;-85
2022/09/09 07:26:40;;;;;;;4.65;2.60;;;;;;;12.82;72.61;101192.77;1630197;87;21409;-85
2022/09/09 07:29:08;;;;;;;3.85;2.60;;;;;;;12.82;72.66;101201.13;1624828;87;21227;-85
2022/09/09 07:31:37;;;;;;;7.90;3.47;;;;;;;12.84;72.71;101192.38;1629076;86;21089;-85
2022/09/09 07:34:05;;;;;;;4.55;2.17;;;;;;;12.89;72.70;101194.22;1600921;87;21123;-85
2022/09/09 07:36:33;;;;;;;4.87;2.60;;;;;;;12.89;72.70;101199.06;1628808;87;21563;-85
2022/09/09 07:39:03;;;;;;;8.80;2.65;;;;;;;12.92;72.75;101201.80;1628622;86;21214;-85
2022/09/09 07:41:44;;;;;;;7.42;2.55;;;;;;;12.93;72.74;101199.63;1622698;87;21837;-86
2022/09/09 07:44:14;;;;;;;3.45;2.05;;;;;;;12.94;72.82;101200.51;1630427;86;21121;-86
2022/09/09 07:46:41;;;;;;;6.65;2.30;;;;;;;12.97;72.86;101196.59;1623903;86;21121;-86
2022/09/09 07:49:09;;;;;;;6.70;2.30;;;;;;;13.05;72.88;101203.41;1619256;86;21593;-85
2022/09/09 07:51:40;;;;;;;8.48;6.10;;;;;;;13.06;72.72;101203.84;1599118;86;21135;-86
2022/09/09 07:54:11;;;;;;;7.40;2.65;;;;;;;13.05;72.66;101200.32;1597643;88;21061;-85
2022/09/09 07:56:39;;;;;;;4.17;2.42;;;;;;;13.07;72.85;101208.29;1621507;88;21477;-86
2022/09/09 07:59:08;;;;;;;5.22;2.67;;;;;;;13.08;72.88;101200.37;1622046;86;21064;-86
2022/09/09 08:01:39;;;;;;;5.85;2.70;;;;;;;13.11;72.70;101202.20;1623542;86;21540;-86
2022/09/09 08:04:10;;;;;;;4.72;2.75;;;;;;;13.09;72.83;101206.57;1617510;87;21137;-85
2022/09/09 08:06:39;;;;;;;5.08;2.90;;;;;;;13.14;72.92;101214.18;1619217;87;21678;-84
2022/09/09 08:09:07;;;;;;;4.90;2.60;;;;;;;13.14;72.82;101207.13;1621755;87;21018;-85
2022/09/09 08:11:35;;;;;;;3.25;2.35;;;;;;;13.14;72.84;101211.09;1621294;88;21013;-85
2022/09/09 08:14:03;;;;;;;4.60;2.87;;;;;;;13.18;72.87;101208.98;1580316;88;21006;-85
2022/09/09 08:16:32;;;;;;;4.47;2.58;;;;;;;13.21;72.86;101212.11;1622192;87;21485;-85
2022/09/09 08:18:59;;;;;;;4.28;3.27;;;;;;;13.25;72.87;101213.06;1622005;88;21747;-85
2022/09/09 08:21:28;;;;;;;4.65;3.15;;;;;;;13.27;72.81;101217.55;1621255;87;21046;-85
2022/09/09 08:23:56;;;;;;;6.20;3.00;;;;;;;13.23;72.58;101213.03;1620423;88;20967;-84
2022/09/09 08:26:31;;;;;;;4.22;2.60;;;;;;;13.16;72.40;101213.78;1618674;88;21093;-84
2022/09/09 08:29:00;;;;;;;4.75;2.83;;;;;;;13.12;72.58;101223.39;1619647;88;21635;-84
2022/09/09 08:31:33;;;;;;;6.08;2.90;;;;;;;13.14;72.57;101224.31;1619858;88;22764;-87
2022/09/09 08:33:59;;;;;;;4.50;3.08;;;;;;;13.18;72.68;101225.27;1614829;86;22400;-84
2022/09/09 08:36:29;;;;;;;6.47;3.92;;;;;;;13.25;72.88;101227.61;1586617;88;21121;-84
2022/09/09 08:38:57;;;;;;;8.78;2.98;;;;;;;13.38;72.93;101225.72;1620260;88;21148;-84
2022/09/09 08:41:45;;;;;;;5.40;2.83;;;;;;;13.52;72.90;101224.70;1620752;87;21014;-84
2022/09/09 08:44:43;;;;;;;5.58;3.37;;;;;;;13.62;72.72;101227.98;1621888;87;22910;-85
2022/09/09 08:47:42;;;;;;;6.42;3.33;;;;;;;13.73;72.70;101224.23;1620202;86;21027;-85
2022/09/09 08:50:37;;;;;;;5.40;3.35;;;;;;;13.80;72.61;101225.70;1621347;87;21019;-85
2022/09/09 08:53:23;;;;;;;7.35;3.10;;;;;;;13.85;72.45;101223.57;1620554;87;21113;-85
2022/09/09 08:56:13;;;;;;;4.22;2.75;;;;;;;13.90;72.48;101225.88;1620907;87;21006;-86
2022/09/09 08:58:50;;;;;;;5.10;3.42;;;;;;;13.94;72.43;101229.04;1619244;86;21054;-85
2022/09/09 09:01:36;;;;;;;;;;;;;;;13.94;72.22;101227.72;1622688;87;21858;-86
2022/09/09 09:04:31;;;;;;;5.97;3.10;;;;;;;13.96;72.41;101224.66;1620152;87;20193;-86
2022/09/09 09:07:21;;;;;;;4.10;2.47;;;;;;;13.96;72.29;101225.58;1619577;86;21051;-85
2022/09/09 09:10:02;;;;;;;5.70;2.37;;;;;;;13.92;72.22;101225.48;1619758;86;22017;-85
2022/09/09 09:12:35;;;;;;;5.67;2.83;;;;;;;13.89;72.23;101226.73;1625376;86;21722;-85
2022/09/09 09:15:02;;;;;;;3.60;2.77;;;;;;;13.94;72.44;101229.04;1600182;88;21066;-85
2022/09/09 09:17:31;;;;;;;4.28;2.92;;;;;;;13.90;72.27;101221.47;1620743;86;21050;-85
2022/09/09 09:19:59;;;;;;;4.20;2.80;;;;;;;13.98;72.52;101232.20;1621974;87;21452;-87
2022/09/09 09:22:50;;;;;;;6.15;4.30;;;;;;;14.03;72.49;101227.01;1621545;87;21460;-85
2022/09/09 09:25:20;;;;;;;6.47;3.15;;;;;;;14.05;72.31;101224.84;1516024;92;21633;-86
2022/09/09 09:28:10;;;;;;;4.58;2.72;;;;;;;14.13;72.36;101228.53;1515942;92;22074;-85
2022/09/09 09:30:42;;;;;;;4.33;2.95;;;;;;;14.19;72.23;101227.75;1511799;92;21055;-85
2022/09/09 09:33:37;;;;;;;5.08;3.42;;;;;;;14.27;72.30;101233.18;1518649;92;21125;-85
2022/09/09 09:36:07;;;;;;;4.33;3.15;;;;;;;14.34;72.21;101237.69;1513591;92;21071;-86
2022/09/09 09:38:40;;;;;;;5.83;3.60;;;;;;;14.26;72.00;101238.00;1518733;93;21842;-86
2022/09/09 09:41:08;;;;;;;6.08;3.67;;;;;;;14.21;71.88;101240.58;1509352;92;22574;-85
2022/09/09 09:43:40;;;;;;;6.62;3.20;;;;;;;14.17;72.01;101238.31;1508089;92;22676;-86
2022/09/09 09:46:25;;;;;;;7.60;3.45;;;;;;;14.18;72.03;101236.55;1507238;92;21129;-85
2022/09/09 09:49:05;;;;;;;6.45;3.25;;;;;;;14.17;72.14;101235.66;1488199;93;21182;-87
2022/09/09 09:51:33;;;;;;;4.87;3.20;;;;;;;14.27;72.29;101237.16;1492131;94;21122;-87
2022/09/09 09:54:25;;;;;;;4.33;3.25;;;;;;;14.31;72.05;101234.57;1459492;96;21258;-85
2022/09/09 09:56:52;;;;;;;5.72;3.45;;;;;;;14.31;72.08;101238.98;1519655;92;21150;-85
2022/09/09 09:59:34;;;;;;;4.58;3.25;;;;;;;14.35;72.00;101240.81;1482782;94;21213;-87
2022/09/09 10:02:20;;;;;;;5.87;3.52;;;;;;;14.30;71.83;101237.19;1570465;88;21029;-87
2022/09/09 10:04:48;;;;;;;4.92;3.52;;;;;;;14.33;71.97;101237.25;1599737;88;21818;-87
2022/09/09 10:07:22;;;;;;;5.60;3.75;;;;;;;14.35;72.02;101231.11;1622707;87;22064;-85
2022/09/09 10:09:53;;;;;;;8.78;5.17;;;;;;;14.42;72.06;101232.55;1608740;88;21108;-85
2022/09/09 10:12:37;;;;;;;16.12;7.83;;;;;;;14.47;72.05;101229.53;1626549;87;21325;-86
2022/09/09 10:15:14;;;;;;;7.87;5.50;;;;;;;14.51;72.03;101223.00;1604045;88;21159;-86
2022/09/09 10:17:46;;;;;;;10.32;6.35;;;;;;;14.57;72.04;101228.42;1598461;88;21878;-85
2022/09/09 10:20:49;;;;;;;6.08;4.35;;;;;;;14.63;72.02;101228.08;1669304;84;22345;-85
2022/09/09 10:23:50;;;;;;;6.78;4.67;;;;;;;14.71;71.87;101226.42;1572135;88;21150;-85
2022/09/09 10:26:36;;;;;;;6.47;4.40;;;;;;;14.76;71.87;101230.05;1614301;86;22278;-85
2022/09/09 10:29:37;;;;;;;8.05;4.42;;;;;;;14.81;71.88;101231.02;1578360;87;21548;-86
2022/09/09 10:32:42;;;;;;;10.23;4.10;;;;;;;14.89;71.93;101235.98;1547706;89;21667;-85
2022/09/09 10:35:27;;;;;;;6.97;3.90;;;;;;;14.92;71.76;101237.78;1580302;88;21126;-86
2022/09/09 10:38:17;;;;;;;6.85;4.10;;;;;;;14.92;71.90;101237.37;1622590;86;21901;-85
2022/09/09 10:41:00;;;;;;;5.22;3.98;;;;;;;14.90;71.53;101236.87;1587534;89;21149;-84
2022/09/09 10:43:55;;;;;;;8.83;4.22;;;;;;;14.91;71.67;101246.17;1613285;87;21101;-87
2022/09/09 10:46:36;;;;;;;4.25;3.40;;;;;;;14.90;71.53;101250.13;1622306;87;21846;-85
2022/09/09 10:49:51;;;;;;;6.75;3.65;;;;;;;14.95;71.71;101249.77;1617247;86;21100;-84
2022/09/09 10:52:29;;;;;;;6.42;3.98;;;;;;;14.99;71.61;101237.45;1582064;89;21078;-84
2022/09/09 10:55:01;;;;;;;6.92;5.92;;;;;;;14.92;71.48;101232.48;1613463;87;21093;-84
2022/09/09 10:57:34;;;;;;;10.05;7.12;;;;;;;14.98;71.41;101232.59;1550552;88;21173;-85
2022/09/09 11:00:06;;;;;;;10.82;4.92;;;;;;;14.94;71.34;101238.28;1658002;85;21110;-84
2022/09/09 11:02:34;;;;;;;6.10;5.05;;;;;;;14.94;71.59;101233.39;1601215;87;21154;-87
2022/09/09 11:05:12;;;;;;;4.87;4.10;;;;;;;14.99;71.62;101233.03;1592821;87;21130;-87
2022/09/09 11:08:02;;;;;;;6.62;4.17;;;;;;;15.01;71.81;101233.94;1657795;84;21093;-87
2022/09/09 11:11:12;;;;;;;5.62;4.00;;;;;;;15.04;71.68;101234.00;1562791;87;21140;-86
2022/09/09 11:14:04;;;;;;;6.67;3.98;;;;;;;15.07;71.61;101242.01;1608247;87;21570;-85
2022/09/09 11:16:50;;;;;;;4.85;3.83;;;;;;;15.11;71.70;101243.83;1604145;87;21167;-86
2022/09/09 11:19:42;;;;;;;6.70;4.20;;;;;;;15.12;71.63;101244.27;1591094;87;21169;-86
2022/09/09 11:22:30;;;;;;;6.17;4.05;;;;;;;15.19;71.59;101235.98;1602273;88;21526;-86
2022/09/09 11:25:16;;;;;;;6.80;4.28;;;;;;;15.24;71.53;101240.00;1654566;84;21630;-86
2022/09/09 11:28:23;;;;;;;4.47;4.08;;;;;;;15.33;71.53;101245.44;1659310;84;21575;-86
2022/09/09 11:31:32;;;;;;;4.85;3.67;;;;;;;15.30;71.28;101244.97;1590201;87;21085;-85
2022/09/09 11:34:21;;;;;;;6.92;3.90;;;;;;;15.29;71.46;101244.95;1610492;87;21206;-85
2022/09/09 11:37:17;;;;;;;4.62;4.00;;;;;;;15.30;71.44;101246.30;1584717;88;22211;-85
2022/09/09 11:40:01;;;;;;;8.55;5.85;;;;;;;15.30;71.35;101246.74;1586169;88;21139;-87
2022/09/09 11:42:29;;;;;;;7.08;4.87;;;;;;;15.22;71.28;101252.36;1587396;88;21787;-84
2022/09/09 11:44:57;;;;;;;5.83;4.35;;;;;;;15.15;71.45;101251.39;1653473;85;21085;-88
2022/09/09 11:47:30;;;;;;;8.73;4.72;;;;;;;15.09;71.36;101254.85;1677844;84;21662;-88
2022/09/09 11:50:12;;;;;;;7.80;4.80;;;;;;;15.03;71.47;101257.39;1628295;86;21165;-88
2022/09/09 11:52:49;;;;;;;4.80;4.15;;;;;;;14.97;71.64;101252.88;1624784;87;22114;-89
2022/09/09 11:55:32;;;;;;;6.97;4.35;;;;;;;14.95;71.58;101261.25;1591159;88;21834;-88
2022/09/09 11:58:03;;;;;;;7.33;5.08;;;;;;;14.87;71.73;101254.95;1662080;83;21536;-89
2022/09/09 12:00:44;;;;;;;7.85;4.87;;;;;;;14.91;71.97;101256.78;1660280;83;21128;-88